Little Falls, NY

2:32 AM EST on February 23, 2017 (GMT -0500)
| | Change Station

Elev -9999 ft 0.00 °N, 0.00 °E | Updated 0 second ago

Mostly Cloudy
Mostly Cloudy
°F
Feels Like °F
N
Wind Variable Wind from North
Gusts mph

Today
High -- | Low -- °F
--% Chance of Precip.
Yesterday
High -- | Low -- °F
Precip. -- in
Pressure 29.81 in
Visibility 10.0 miles
Clouds Scattered Clouds 3800 ft
Mostly Cloudy 4700 ft
Overcast 7000 ft
Dew Point Not available.
Humidity Not available.
Rainfall --
Snow Depth Not available.
6:44 AM 5:41 PM
Waning Crescent, 12% visible
METAR KRME 230653Z AUTO 12004KT 10SM SCT038 BKN047 OVC070 06/03 A2981 RMK AO2 SLP095 T00610028
Pressure 29.81 in
Visibility 10.0 miles
Clouds Scattered Clouds 3800 ft
Mostly Cloudy 4700 ft
Overcast 7000 ft
Dew Point Not available.
Humidity Not available.
Rainfall --
Snow Depth Not available.
6:44 AM 5:41 PM
Waning Crescent, 12% visible
METAR KRME 230653Z AUTO 12004KT 10SM SCT038 BKN047 OVC070 06/03 A2981 RMK AO2 SLP095 T00610028

Get Your Daily Forecast Email!

Thanks for signing up!

Be on the lookout for a verification email in your inbox.

You'll start receiving the daily forecast at 8 AM.

×

10-Day Weather Forecast

Almanac

Astronomy

Feb. 23, 2017 Rise Set
Actual Time
Civil Twilight
Nautical Twilight
Astronomical Twilight
Moon
Length of Visible Light
Length of Day
Tomorrow will be .
, % of the Moon is Illuminated

Today's Extremes

State Highs State Lows

Community

WunderPhotos

Upload Photos

1,962,540 photos uploaded!

WunderBlog® & News

Nearby

Air Quality

  Air Quality AQ Index Pollutant
Not available.

Snow Depth

Station Depth Elevation

Earthquake Activity

City Distance Mag. Time & Date
Minimum magnitude displayed is 2.5.

Coastal Water Temperatures

Place Temperature

Stations

Nearby Weather Stations

Station Location Temp. Windchill Dew Point Humidity Wind Precip. Elev Updated Type
                   

Watches & Warnings

There are currently no watches in effect.